sensor_id;sensor_type;location;lat;lon;timestamp;P1;durP1;ratioP1;P2;durP2;ratioP2
65373;SDS011;52070;53.760;9.678;2023-03-23T00:01:05;18.77;;;10.63;;
65373;SDS011;52070;53.760;9.678;2023-03-23T00:03:35;14.48;;;10.25;;
65373;SDS011;52070;53.760;9.678;2023-03-23T00:06:03;25.13;;;12.05;;
65373;SDS011;52070;53.760;9.678;2023-03-23T00:08:33;18.92;;;11.57;;
65373;SDS011;52070;53.760;9.678;2023-03-23T00:11:03;18.45;;;12.07;;
65373;SDS011;52070;53.760;9.678;2023-03-23T00:13:30;24.73;;;12.77;;
65373;SDS011;52070;53.760;9.678;2023-03-23T00:15:58;20.05;;;12.20;;
65373;SDS011;52070;53.760;9.678;2023-03-23T00:18:25;23.13;;;12.93;;
65373;SDS011;52070;53.760;9.678;2023-03-23T00:20:52;19.50;;;12.35;;
65373;SDS011;52070;53.760;9.678;2023-03-23T00:23:21;21.58;;;13.13;;
65373;SDS011;52070;53.760;9.678;2023-03-23T00:25:51;23.65;;;13.13;;
65373;SDS011;52070;53.760;9.678;2023-03-23T00:28:22;22.73;;;13.02;;
65373;SDS011;52070;53.760;9.678;2023-03-23T00:30:55;22.15;;;12.95;;
65373;SDS011;52070;53.760;9.678;2023-03-23T00:33:23;21.52;;;13.20;;
65373;SDS011;52070;53.760;9.678;2023-03-23T00:35:51;31.80;;;14.77;;
65373;SDS011;52070;53.760;9.678;2023-03-23T00:38:19;23.33;;;14.00;;
65373;SDS011;52070;53.760;9.678;2023-03-23T00:40:47;26.33;;;14.68;;
65373;SDS011;52070;53.760;9.678;2023-03-23T00:43:16;24.98;;;14.45;;
65373;SDS011;52070;53.760;9.678;2023-03-23T00:45:44;26.08;;;14.50;;
65373;SDS011;52070;53.760;9.678;2023-03-23T00:48:17;25.48;;;15.60;;
65373;SDS011;52070;53.760;9.678;2023-03-23T00:50:45;26.00;;;15.77;;
65373;SDS011;52070;53.760;9.678;2023-03-23T00:53:12;32.20;;;15.15;;
65373;SDS011;52070;53.760;9.678;2023-03-23T00:55:40;24.13;;;14.90;;
65373;SDS011;52070;53.760;9.678;2023-03-23T00:58:07;29.17;;;14.75;;
65373;SDS011;52070;53.760;9.678;2023-03-23T01:00:36;25.90;;;15.40;;
65373;SDS011;52070;53.760;9.678;2023-03-23T01:03:03;25.73;;;15.05;;
65373;SDS011;52070;53.760;9.678;2023-03-23T01:05:33;21.58;;;14.23;;
65373;SDS011;52070;53.760;9.678;2023-03-23T01:08:00;25.15;;;14.98;;
65373;SDS011;52070;53.760;9.678;2023-03-23T01:10:28;24.55;;;14.88;;
65373;SDS011;52070;53.760;9.678;2023-03-23T01:12:58;24.07;;;15.47;;
65373;SDS011;52070;53.760;9.678;2023-03-23T01:15:25;27.27;;;15.93;;
65373;SDS011;52070;53.760;9.678;2023-03-23T01:17:54;26.70;;;15.73;;
65373;SDS011;52070;53.760;9.678;2023-03-23T01:20:21;24.77;;;15.45;;
65373;SDS011;52070;53.760;9.678;2023-03-23T01:22:48;24.63;;;15.43;;
65373;SDS011;52070;53.760;9.678;2023-03-23T01:25:15;23.65;;;14.70;;
65373;SDS011;52070;53.760;9.678;2023-03-23T01:27:42;21.10;;;14.30;;
65373;SDS011;52070;53.760;9.678;2023-03-23T01:30:10;23.90;;;13.95;;
65373;SDS011;52070;53.760;9.678;2023-03-23T01:32:39;20.35;;;14.13;;
65373;SDS011;52070;53.760;9.678;2023-03-23T01:35:07;22.73;;;14.43;;
65373;SDS011;52070;53.760;9.678;2023-03-23T01:37:35;20.45;;;13.82;;
65373;SDS011;52070;53.760;9.678;2023-03-23T01:40:02;24.52;;;15.38;;
65373;SDS011;52070;53.760;9.678;2023-03-23T01:42:31;24.42;;;16.15;;
65373;SDS011;52070;53.760;9.678;2023-03-23T01:47:55;22.58;;;15.75;;
65373;SDS011;52070;53.760;9.678;2023-03-23T01:50:27;25.05;;;16.50;;
65373;SDS011;52070;53.760;9.678;2023-03-23T01:52:56;21.48;;;15.88;;
65373;SDS011;52070;53.760;9.678;2023-03-23T01:55:26;25.23;;;16.77;;
65373;SDS011;52070;53.760;9.678;2023-03-23T01:57:54;25.80;;;16.92;;
65373;SDS011;52070;53.760;9.678;2023-03-23T02:00:22;25.40;;;16.90;;
65373;SDS011;52070;53.760;9.678;2023-03-23T02:02:51;24.75;;;16.70;;
65373;SDS011;52070;53.760;9.678;2023-03-23T02:05:21;24.75;;;16.83;;
65373;SDS011;52070;53.760;9.678;2023-03-23T02:07:55;23.77;;;16.48;;
65373;SDS011;52070;53.760;9.678;2023-03-23T02:10:28;25.65;;;17.80;;
65373;SDS011;52070;53.760;9.678;2023-03-23T02:12:56;24.35;;;17.23;;
65373;SDS011;52070;53.760;9.678;2023-03-23T02:15:24;25.52;;;17.23;;
65373;SDS011;52070;53.760;9.678;2023-03-23T02:17:54;24.88;;;17.52;;
65373;SDS011;52070;53.760;9.678;2023-03-23T02:20:33;26.92;;;18.38;;
65373;SDS011;52070;53.760;9.678;2023-03-23T02:23:26;26.63;;;17.60;;
65373;SDS011;52070;53.760;9.678;2023-03-23T02:26:19;31.50;;;18.17;;
65373;SDS011;52070;53.760;9.678;2023-03-23T02:29:04;30.85;;;18.15;;
65373;SDS011;52070;53.760;9.678;2023-03-23T02:31:44;25.17;;;17.75;;
65373;SDS011;52070;53.760;9.678;2023-03-23T02:34:23;28.20;;;17.65;;
65373;SDS011;52070;53.760;9.678;2023-03-23T02:36:56;28.17;;;17.73;;
65373;SDS011;52070;53.760;9.678;2023-03-23T02:39:26;26.08;;;17.17;;
65373;SDS011;52070;53.760;9.678;2023-03-23T02:41:58;23.17;;;16.73;;
65373;SDS011;52070;53.760;9.678;2023-03-23T02:44:28;32.47;;;18.05;;
65373;SDS011;52070;53.760;9.678;2023-03-23T02:46:58;26.98;;;18.08;;
65373;SDS011;52070;53.760;9.678;2023-03-23T02:51:58;26.30;;;17.00;;
65373;SDS011;52070;53.760;9.678;2023-03-23T02:54:28;27.67;;;18.30;;
65373;SDS011;52070;53.760;9.678;2023-03-23T02:56:55;26.38;;;17.58;;
65373;SDS011;52070;53.760;9.678;2023-03-23T02:59:23;26.27;;;18.27;;
65373;SDS011;52070;53.760;9.678;2023-03-23T03:02:01;28.40;;;18.77;;
65373;SDS011;52070;53.760;9.678;2023-03-23T03:04:33;25.23;;;17.65;;
65373;SDS011;52070;53.760;9.678;2023-03-23T03:07:07;28.48;;;18.10;;
65373;SDS011;52070;53.760;9.678;2023-03-23T03:09:54;26.10;;;18.15;;
65373;SDS011;52070;53.760;9.678;2023-03-23T03:12:26;25.38;;;17.50;;
65373;SDS011;52070;53.760;9.678;2023-03-23T03:15:01;26.50;;;17.33;;
65373;SDS011;52070;53.760;9.678;2023-03-23T03:17:38;26.20;;;18.17;;
65373;SDS011;52070;53.760;9.678;2023-03-23T03:20:11;24.30;;;17.17;;
65373;SDS011;52070;53.760;9.678;2023-03-23T03:22:40;27.42;;;17.10;;
65373;SDS011;52070;53.760;9.678;2023-03-23T03:25:10;25.90;;;17.17;;
65373;SDS011;52070;53.760;9.678;2023-03-23T03:27:40;27.38;;;16.52;;
65373;SDS011;52070;53.760;9.678;2023-03-23T03:30:10;24.65;;;16.20;;
65373;SDS011;52070;53.760;9.678;2023-03-23T03:32:41;25.95;;;16.92;;
65373;SDS011;52070;53.760;9.678;2023-03-23T03:35:13;27.08;;;16.70;;
65373;SDS011;52070;53.760;9.678;2023-03-23T03:37:41;25.63;;;16.50;;
65373;SDS011;52070;53.760;9.678;2023-03-23T03:40:10;26.08;;;16.85;;
65373;SDS011;52070;53.760;9.678;2023-03-23T03:42:38;24.60;;;16.00;;
65373;SDS011;52070;53.760;9.678;2023-03-23T03:45:06;25.38;;;16.77;;
65373;SDS011;52070;53.760;9.678;2023-03-23T03:47:34;24.80;;;15.45;;
65373;SDS011;52070;53.760;9.678;2023-03-23T03:50:02;24.85;;;16.77;;
65373;SDS011;52070;53.760;9.678;2023-03-23T03:52:30;23.80;;;16.08;;
65373;SDS011;52070;53.760;9.678;2023-03-23T03:54:57;27.13;;;16.40;;
65373;SDS011;52070;53.760;9.678;2023-03-23T03:57:24;22.17;;;16.05;;
65373;SDS011;52070;53.760;9.678;2023-03-23T03:59:51;24.60;;;16.02;;
65373;SDS011;52070;53.760;9.678;2023-03-23T04:02:19;21.70;;;16.15;;
65373;SDS011;52070;53.760;9.678;2023-03-23T04:04:46;22.67;;;15.25;;
65373;SDS011;52070;53.760;9.678;2023-03-23T04:07:13;23.67;;;15.70;;
65373;SDS011;52070;53.760;9.678;2023-03-23T04:09:43;25.13;;;15.63;;
65373;SDS011;52070;53.760;9.678;2023-03-23T04:12:11;23.10;;;16.42;;
65373;SDS011;52070;53.760;9.678;2023-03-23T04:14:39;24.02;;;15.57;;
65373;SDS011;52070;53.760;9.678;2023-03-23T04:17:06;20.98;;;15.65;;
65373;SDS011;52070;53.760;9.678;2023-03-23T04:19:34;23.65;;;15.13;;
65373;SDS011;52070;53.760;9.678;2023-03-23T04:22:02;20.67;;;15.18;;
65373;SDS011;52070;53.760;9.678;2023-03-23T04:24:29;22.10;;;15.98;;
65373;SDS011;52070;53.760;9.678;2023-03-23T04:27:00;20.20;;;15.07;;
65373;SDS011;52070;53.760;9.678;2023-03-23T04:29:27;25.60;;;15.82;;
65373;SDS011;52070;53.760;9.678;2023-03-23T04:31:55;21.48;;;14.23;;
65373;SDS011;52070;53.760;9.678;2023-03-23T04:34:22;27.00;;;15.02;;
65373;SDS011;52070;53.760;9.678;2023-03-23T04:36:49;22.77;;;15.82;;
65373;SDS011;52070;53.760;9.678;2023-03-23T04:39:17;23.45;;;14.82;;
65373;SDS011;52070;53.760;9.678;2023-03-23T04:41:44;22.13;;;14.35;;
65373;SDS011;52070;53.760;9.678;2023-03-23T04:44:13;20.80;;;14.70;;
65373;SDS011;52070;53.760;9.678;2023-03-23T04:46:43;21.92;;;14.32;;
65373;SDS011;52070;53.760;9.678;2023-03-23T04:49:15;23.73;;;14.38;;
65373;SDS011;52070;53.760;9.678;2023-03-23T04:51:47;20.55;;;13.35;;
65373;SDS011;52070;53.760;9.678;2023-03-23T04:54:16;20.10;;;14.15;;
65373;SDS011;52070;53.760;9.678;2023-03-23T04:56:43;21.80;;;14.10;;
65373;SDS011;52070;53.760;9.678;2023-03-23T04:59:10;24.63;;;14.65;;
65373;SDS011;52070;53.760;9.678;2023-03-23T05:01:40;23.15;;;15.13;;
65373;SDS011;52070;53.760;9.678;2023-03-23T05:04:11;22.52;;;14.43;;
65373;SDS011;52070;53.760;9.678;2023-03-23T05:06:42;19.60;;;13.70;;
65373;SDS011;52070;53.760;9.678;2023-03-23T05:09:10;20.90;;;14.35;;
65373;SDS011;52070;53.760;9.678;2023-03-23T05:11:37;20.75;;;14.45;;
65373;SDS011;52070;53.760;9.678;2023-03-23T05:14:05;19.33;;;15.45;;
65373;SDS011;52070;53.760;9.678;2023-03-23T05:16:32;23.48;;;14.30;;
65373;SDS011;52070;53.760;9.678;2023-03-23T05:19:03;23.47;;;13.57;;
65373;SDS011;52070;53.760;9.678;2023-03-23T05:21:30;20.50;;;13.80;;
65373;SDS011;52070;53.760;9.678;2023-03-23T05:23:57;23.20;;;13.70;;
65373;SDS011;52070;53.760;9.678;2023-03-23T05:26:26;21.05;;;13.57;;
65373;SDS011;52070;53.760;9.678;2023-03-23T05:28:55;21.63;;;14.18;;
65373;SDS011;52070;53.760;9.678;2023-03-23T05:31:22;19.77;;;13.52;;
65373;SDS011;52070;53.760;9.678;2023-03-23T05:33:49;18.00;;;13.15;;
65373;SDS011;52070;53.760;9.678;2023-03-23T05:36:18;24.50;;;13.95;;
65373;SDS011;52070;53.760;9.678;2023-03-23T05:38:45;21.63;;;14.23;;
65373;SDS011;52070;53.760;9.678;2023-03-23T05:41:13;19.35;;;13.82;;
65373;SDS011;52070;53.760;9.678;2023-03-23T05:43:40;20.88;;;13.90;;
65373;SDS011;52070;53.760;9.678;2023-03-23T05:46:07;20.23;;;13.30;;
65373;SDS011;52070;53.760;9.678;2023-03-23T05:48:34;17.23;;;12.50;;
65373;SDS011;52070;53.760;9.678;2023-03-23T05:51:02;18.58;;;12.38;;
65373;SDS011;52070;53.760;9.678;2023-03-23T05:53:30;18.00;;;12.70;;
65373;SDS011;52070;53.760;9.678;2023-03-23T05:55:58;19.33;;;12.95;;
65373;SDS011;52070;53.760;9.678;2023-03-23T05:58:26;16.30;;;12.95;;
65373;SDS011;52070;53.760;9.678;2023-03-23T06:00:53;18.33;;;12.80;;
65373;SDS011;52070;53.760;9.678;2023-03-23T06:03:20;18.38;;;12.23;;
65373;SDS011;52070;53.760;9.678;2023-03-23T06:05:48;17.42;;;12.40;;
65373;SDS011;52070;53.760;9.678;2023-03-23T06:08:15;19.17;;;11.82;;
65373;SDS011;52070;53.760;9.678;2023-03-23T06:10:44;18.58;;;12.82;;
65373;SDS011;52070;53.760;9.678;2023-03-23T06:13:11;20.63;;;12.25;;
65373;SDS011;52070;53.760;9.678;2023-03-23T06:15:38;20.80;;;12.25;;
65373;SDS011;52070;53.760;9.678;2023-03-23T06:18:05;22.30;;;11.57;;
65373;SDS011;52070;53.760;9.678;2023-03-23T06:20:32;13.35;;;10.68;;
65373;SDS011;52070;53.760;9.678;2023-03-23T06:23:00;16.83;;;10.82;;
65373;SDS011;52070;53.760;9.678;2023-03-23T06:25:28;22.67;;;11.00;;
65373;SDS011;52070;53.760;9.678;2023-03-23T06:27:57;15.15;;;10.02;;
65373;SDS011;52070;53.760;9.678;2023-03-23T06:30:24;15.52;;;10.10;;
65373;SDS011;52070;53.760;9.678;2023-03-23T06:32:52;15.75;;;10.20;;
65373;SDS011;52070;53.760;9.678;2023-03-23T06:35:19;18.00;;;9.90;;
65373;SDS011;52070;53.760;9.678;2023-03-23T06:37:46;13.95;;;8.75;;
65373;SDS011;52070;53.760;9.678;2023-03-23T06:40:13;12.70;;;8.70;;
65373;SDS011;52070;53.760;9.678;2023-03-23T06:42:44;12.50;;;8.55;;
65373;SDS011;52070;53.760;9.678;2023-03-23T06:45:12;12.25;;;8.48;;
65373;SDS011;52070;53.760;9.678;2023-03-23T06:47:39;12.05;;;8.00;;
65373;SDS011;52070;53.760;9.678;2023-03-23T06:50:06;11.63;;;7.85;;
65373;SDS011;52070;53.760;9.678;2023-03-23T06:52:34;13.15;;;7.82;;
65373;SDS011;52070;53.760;9.678;2023-03-23T06:55:01;10.82;;;7.88;;
65373;SDS011;52070;53.760;9.678;2023-03-23T06:57:30;11.73;;;7.32;;
65373;SDS011;52070;53.760;9.678;2023-03-23T06:59:57;10.68;;;7.13;;
65373;SDS011;52070;53.760;9.678;2023-03-23T07:02:26;11.95;;;6.60;;
65373;SDS011;52070;53.760;9.678;2023-03-23T07:04:53;9.43;;;6.30;;
65373;SDS011;52070;53.760;9.678;2023-03-23T07:07:20;11.27;;;6.85;;
65373;SDS011;52070;53.760;9.678;2023-03-23T07:09:47;10.05;;;6.25;;
65373;SDS011;52070;53.760;9.678;2023-03-23T07:12:14;8.52;;;6.07;;
65373;SDS011;52070;53.760;9.678;2023-03-23T07:14:41;10.70;;;6.72;;
65373;SDS011;52070;53.760;9.678;2023-03-23T07:17:08;10.90;;;6.85;;
65373;SDS011;52070;53.760;9.678;2023-03-23T07:19:38;11.30;;;6.18;;
65373;SDS011;52070;53.760;9.678;2023-03-23T07:22:05;15.25;;;6.35;;
65373;SDS011;52070;53.760;9.678;2023-03-23T07:24:34;9.68;;;6.55;;
65373;SDS011;52070;53.760;9.678;2023-03-23T07:27:01;9.85;;;6.32;;
65373;SDS011;52070;53.760;9.678;2023-03-23T07:29:28;12.85;;;7.10;;
65373;SDS011;52070;53.760;9.678;2023-03-23T07:31:55;12.35;;;7.32;;
65373;SDS011;52070;53.760;9.678;2023-03-23T07:34:22;13.45;;;8.40;;
65373;SDS011;52070;53.760;9.678;2023-03-23T07:36:50;15.68;;;7.63;;
65373;SDS011;52070;53.760;9.678;2023-03-23T07:39:18;9.60;;;5.90;;
65373;SDS011;52070;53.760;9.678;2023-03-23T07:41:44;8.80;;;4.38;;
65373;SDS011;52070;53.760;9.678;2023-03-23T07:44:11;8.43;;;4.70;;
65373;SDS011;52070;53.760;9.678;2023-03-23T07:46:38;7.55;;;4.85;;
65373;SDS011;52070;53.760;9.678;2023-03-23T07:49:05;8.93;;;4.80;;
65373;SDS011;52070;53.760;9.678;2023-03-23T07:51:33;9.45;;;4.07;;
65373;SDS011;52070;53.760;9.678;2023-03-23T07:54:02;6.30;;;3.33;;
65373;SDS011;52070;53.760;9.678;2023-03-23T07:56:29;8.63;;;2.70;;
65373;SDS011;52070;53.760;9.678;2023-03-23T07:58:57;10.30;;;2.47;;
65373;SDS011;52070;53.760;9.678;2023-03-23T08:01:24;6.70;;;2.15;;
65373;SDS011;52070;53.760;9.678;2023-03-23T08:03:51;9.10;;;2.20;;
65373;SDS011;52070;53.760;9.678;2023-03-23T08:06:19;9.27;;;2.17;;
65373;SDS011;52070;53.760;9.678;2023-03-23T08:08:48;8.63;;;1.95;;
65373;SDS011;52070;53.760;9.678;2023-03-23T08:11:17;5.45;;;1.50;;
65373;SDS011;52070;53.760;9.678;2023-03-23T08:13:44;9.95;;;1.90;;
65373;SDS011;52070;53.760;9.678;2023-03-23T08:16:11;3.85;;;1.35;;
65373;SDS011;52070;53.760;9.678;2023-03-23T08:18:39;5.88;;;1.40;;
65373;SDS011;52070;53.760;9.678;2023-03-23T08:21:07;9.52;;;1.83;;
65373;SDS011;52070;53.760;9.678;2023-03-23T08:23:34;4.25;;;1.38;;
65373;SDS011;52070;53.760;9.678;2023-03-23T08:26:02;3.80;;;1.20;;
65373;SDS011;52070;53.760;9.678;2023-03-23T08:28:31;7.65;;;1.48;;
65373;SDS011;52070;53.760;9.678;2023-03-23T08:30:58;3.67;;;1.27;;
65373;SDS011;52070;53.760;9.678;2023-03-23T08:33:25;5.65;;;1.50;;
65373;SDS011;52070;53.760;9.678;2023-03-23T08:35:56;5.60;;;1.35;;
65373;SDS011;52070;53.760;9.678;2023-03-23T08:38:24;6.53;;;1.27;;
65373;SDS011;52070;53.760;9.678;2023-03-23T08:40:56;6.55;;;1.73;;
65373;SDS011;52070;53.760;9.678;2023-03-23T08:43:23;9.75;;;1.50;;
65373;SDS011;52070;53.760;9.678;2023-03-23T08:45:52;5.93;;;1.27;;
65373;SDS011;52070;53.760;9.678;2023-03-23T08:48:19;6.72;;;1.63;;
65373;SDS011;52070;53.760;9.678;2023-03-23T08:50:46;7.93;;;1.83;;
65373;SDS011;52070;53.760;9.678;2023-03-23T08:53:13;5.25;;;1.55;;
65373;SDS011;52070;53.760;9.678;2023-03-23T08:55:41;7.70;;;1.75;;
65373;SDS011;52070;53.760;9.678;2023-03-23T08:58:08;7.97;;;1.77;;
65373;SDS011;52070;53.760;9.678;2023-03-23T09:00:35;6.60;;;1.52;;
65373;SDS011;52070;53.760;9.678;2023-03-23T09:03:03;8.90;;;1.60;;
65373;SDS011;52070;53.760;9.678;2023-03-23T09:05:30;7.95;;;1.52;;
65373;SDS011;52070;53.760;9.678;2023-03-23T09:07:58;10.15;;;1.90;;
65373;SDS011;52070;53.760;9.678;2023-03-23T09:10:25;5.05;;;1.88;;
65373;SDS011;52070;53.760;9.678;2023-03-23T09:12:53;6.57;;;1.50;;
65373;SDS011;52070;53.760;9.678;2023-03-23T09:15:20;8.93;;;1.65;;
65373;SDS011;52070;53.760;9.678;2023-03-23T09:17:49;7.35;;;1.60;;
65373;SDS011;52070;53.760;9.678;2023-03-23T09:20:19;5.60;;;1.50;;
65373;SDS011;52070;53.760;9.678;2023-03-23T09:22:48;9.30;;;1.77;;
65373;SDS011;52070;53.760;9.678;2023-03-23T09:25:16;10.43;;;2.00;;
65373;SDS011;52070;53.760;9.678;2023-03-23T09:30:18;6.78;;;1.70;;
65373;SDS011;52070;53.760;9.678;2023-03-23T09:32:46;10.80;;;2.13;;
65373;SDS011;52070;53.760;9.678;2023-03-23T09:35:14;8.77;;;2.00;;
65373;SDS011;52070;53.760;9.678;2023-03-23T09:37:44;6.78;;;1.60;;
65373;SDS011;52070;53.760;9.678;2023-03-23T09:40:12;6.70;;;1.85;;
65373;SDS011;52070;53.760;9.678;2023-03-23T09:42:56;11.73;;;1.90;;
65373;SDS011;52070;53.760;9.678;2023-03-23T09:45:36;7.95;;;1.75;;
65373;SDS011;52070;53.760;9.678;2023-03-23T09:48:17;8.82;;;1.80;;
65373;SDS011;52070;53.760;9.678;2023-03-23T09:50:55;10.25;;;1.67;;
65373;SDS011;52070;53.760;9.678;2023-03-23T09:53:32;9.68;;;2.75;;
65373;SDS011;52070;53.760;9.678;2023-03-23T09:56:08;9.50;;;1.88;;
65373;SDS011;52070;53.760;9.678;2023-03-23T09:58:37;11.63;;;2.08;;
65373;SDS011;52070;53.760;9.678;2023-03-23T10:01:13;7.43;;;1.70;;
65373;SDS011;52070;53.760;9.678;2023-03-23T10:03:44;9.73;;;1.80;;
65373;SDS011;52070;53.760;9.678;2023-03-23T10:06:13;17.55;;;2.08;;
65373;SDS011;52070;53.760;9.678;2023-03-23T10:11:14;9.43;;;1.60;;
65373;SDS011;52070;53.760;9.678;2023-03-23T10:13:53;8.93;;;1.83;;
65373;SDS011;52070;53.760;9.678;2023-03-23T10:16:37;11.32;;;2.03;;
65373;SDS011;52070;53.760;9.678;2023-03-23T10:19:09;11.20;;;2.22;;
65373;SDS011;52070;53.760;9.678;2023-03-23T10:21:40;9.40;;;1.67;;
65373;SDS011;52070;53.760;9.678;2023-03-23T10:24:13;9.40;;;1.80;;
65373;SDS011;52070;53.760;9.678;2023-03-23T10:26:46;12.60;;;1.80;;
65373;SDS011;52070;53.760;9.678;2023-03-23T10:29:21;9.98;;;1.80;;
65373;SDS011;52070;53.760;9.678;2023-03-23T10:31:53;8.77;;;1.85;;
65373;SDS011;52070;53.760;9.678;2023-03-23T10:34:24;12.57;;;2.83;;
65373;SDS011;52070;53.760;9.678;2023-03-23T10:37:00;14.85;;;2.30;;
65373;SDS011;52070;53.760;9.678;2023-03-23T10:39:34;10.80;;;2.13;;
65373;SDS011;52070;53.760;9.678;2023-03-23T10:42:08;14.50;;;1.90;;
65373;SDS011;52070;53.760;9.678;2023-03-23T10:44:35;13.13;;;2.15;;
65373;SDS011;52070;53.760;9.678;2023-03-23T10:47:04;12.65;;;2.00;;
65373;SDS011;52070;53.760;9.678;2023-03-23T10:49:34;13.90;;;2.35;;
65373;SDS011;52070;53.760;9.678;2023-03-23T10:52:09;12.27;;;2.00;;
65373;SDS011;52070;53.760;9.678;2023-03-23T10:54:50;12.73;;;1.92;;
65373;SDS011;52070;53.760;9.678;2023-03-23T10:57:23;9.60;;;2.33;;
65373;SDS011;52070;53.760;9.678;2023-03-23T10:59:57;14.13;;;1.98;;
65373;SDS011;52070;53.760;9.678;2023-03-23T11:02:26;13.32;;;2.10;;
65373;SDS011;52070;53.760;9.678;2023-03-23T11:04:56;11.45;;;2.20;;
65373;SDS011;52070;53.760;9.678;2023-03-23T11:07:27;15.07;;;2.38;;
65373;SDS011;52070;53.760;9.678;2023-03-23T11:10:03;13.40;;;2.25;;
65373;SDS011;52070;53.760;9.678;2023-03-23T11:12:35;12.68;;;2.33;;
65373;SDS011;52070;53.760;9.678;2023-03-23T11:15:16;14.32;;;2.50;;
65373;SDS011;52070;53.760;9.678;2023-03-23T11:17:58;12.75;;;2.38;;
65373;SDS011;52070;53.760;9.678;2023-03-23T11:20:27;15.80;;;2.20;;
65373;SDS011;52070;53.760;9.678;2023-03-23T11:22:56;12.18;;;3.42;;
65373;SDS011;52070;53.760;9.678;2023-03-23T11:25:25;16.88;;;2.88;;
65373;SDS011;52070;53.760;9.678;2023-03-23T11:27:52;11.10;;;2.60;;
65373;SDS011;52070;53.760;9.678;2023-03-23T11:30:22;14.07;;;2.33;;
65373;SDS011;52070;53.760;9.678;2023-03-23T11:32:52;13.60;;;2.55;;
65373;SDS011;52070;53.760;9.678;2023-03-23T11:35:22;15.48;;;2.70;;
65373;SDS011;52070;53.760;9.678;2023-03-23T11:40:20;13.68;;;2.58;;
65373;SDS011;52070;53.760;9.678;2023-03-23T11:42:56;16.42;;;2.80;;
65373;SDS011;52070;53.760;9.678;2023-03-23T11:45:30;14.73;;;2.70;;
65373;SDS011;52070;53.760;9.678;2023-03-23T11:48:12;14.43;;;2.20;;
65373;SDS011;52070;53.760;9.678;2023-03-23T11:50:48;15.63;;;2.80;;
65373;SDS011;52070;53.760;9.678;2023-03-23T11:53:22;11.65;;;2.33;;
65373;SDS011;52070;53.760;9.678;2023-03-23T11:56:03;18.95;;;2.83;;
65373;SDS011;52070;53.760;9.678;2023-03-23T11:58:37;17.23;;;2.65;;
65373;SDS011;52070;53.760;9.678;2023-03-23T12:01:05;18.30;;;2.78;;
65373;SDS011;52070;53.760;9.678;2023-03-23T12:03:43;16.20;;;2.55;;
65373;SDS011;52070;53.760;9.678;2023-03-23T12:06:21;17.35;;;2.60;;
65373;SDS011;52070;53.760;9.678;2023-03-23T12:08:59;18.75;;;3.00;;
65373;SDS011;52070;53.760;9.678;2023-03-23T12:11:37;14.75;;;2.58;;
65373;SDS011;52070;53.760;9.678;2023-03-23T12:14:25;17.63;;;2.85;;
65373;SDS011;52070;53.760;9.678;2023-03-23T12:17:03;17.25;;;2.42;;
65373;SDS011;52070;53.760;9.678;2023-03-23T12:19:40;15.02;;;3.17;;
65373;SDS011;52070;53.760;9.678;2023-03-23T12:22:18;13.73;;;3.00;;
65373;SDS011;52070;53.760;9.678;2023-03-23T12:24:59;12.13;;;2.33;;
65373;SDS011;52070;53.760;9.678;2023-03-23T12:27:38;15.80;;;2.65;;
65373;SDS011;52070;53.760;9.678;2023-03-23T12:30:19;16.90;;;2.75;;
65373;SDS011;52070;53.760;9.678;2023-03-23T12:35:49;13.75;;;2.38;;
65373;SDS011;52070;53.760;9.678;2023-03-23T12:38:30;13.60;;;2.60;;
65373;SDS011;52070;53.760;9.678;2023-03-23T12:41:07;16.70;;;2.95;;
65373;SDS011;52070;53.760;9.678;2023-03-23T12:43:47;15.27;;;2.35;;
65373;SDS011;52070;53.760;9.678;2023-03-23T12:49:24;16.25;;;2.42;;
65373;SDS011;52070;53.760;9.678;2023-03-23T12:51:57;15.95;;;2.85;;
65373;SDS011;52070;53.760;9.678;2023-03-23T12:54:29;15.32;;;2.63;;
65373;SDS011;52070;53.760;9.678;2023-03-23T12:57:02;14.85;;;2.58;;
65373;SDS011;52070;53.760;9.678;2023-03-23T12:59:36;18.40;;;2.13;;
65373;SDS011;52070;53.760;9.678;2023-03-23T13:02:12;17.00;;;2.30;;
65373;SDS011;52070;53.760;9.678;2023-03-23T13:04:47;18.77;;;2.90;;
65373;SDS011;52070;53.760;9.678;2023-03-23T13:07:20;13.73;;;2.60;;
65373;SDS011;52070;53.760;9.678;2023-03-23T13:09:53;20.35;;;2.40;;
65373;SDS011;52070;53.760;9.678;2023-03-23T13:12:25;11.88;;;2.10;;
65373;SDS011;52070;53.760;9.678;2023-03-23T13:14:57;21.80;;;2.58;;
65373;SDS011;52070;53.760;9.678;2023-03-23T13:17:35;17.05;;;2.50;;
65373;SDS011;52070;53.760;9.678;2023-03-23T13:20:21;17.10;;;2.40;;
65373;SDS011;52070;53.760;9.678;2023-03-23T13:22:58;12.60;;;2.40;;
65373;SDS011;52070;53.760;9.678;2023-03-23T13:25:37;16.60;;;2.50;;
65373;SDS011;52070;53.760;9.678;2023-03-23T13:28:14;14.80;;;2.35;;
65373;SDS011;52070;53.760;9.678;2023-03-23T13:30:52;13.07;;;2.47;;
65373;SDS011;52070;53.760;9.678;2023-03-23T13:33:20;17.40;;;2.60;;
65373;SDS011;52070;53.760;9.678;2023-03-23T13:35:49;14.45;;;2.65;;
65373;SDS011;52070;53.760;9.678;2023-03-23T13:38:19;9.10;;;1.80;;
65373;SDS011;52070;53.760;9.678;2023-03-23T13:40:49;9.13;;;2.20;;
65373;SDS011;52070;53.760;9.678;2023-03-23T13:43:25;13.77;;;2.00;;
65373;SDS011;52070;53.760;9.678;2023-03-23T13:45:55;11.25;;;2.05;;
65373;SDS011;52070;53.760;9.678;2023-03-23T13:48:39;11.77;;;2.40;;
65373;SDS011;52070;53.760;9.678;2023-03-23T13:54:13;8.18;;;2.00;;
65373;SDS011;52070;53.760;9.678;2023-03-23T13:56:48;11.70;;;2.50;;
65373;SDS011;52070;53.760;9.678;2023-03-23T13:59:31;9.93;;;2.00;;
65373;SDS011;52070;53.760;9.678;2023-03-23T14:05:33;18.15;;;2.63;;
65373;SDS011;52070;53.760;9.678;2023-03-23T14:08:09;10.05;;;2.63;;
65373;SDS011;52070;53.760;9.678;2023-03-23T14:10:40;8.55;;;2.47;;
65373;SDS011;52070;53.760;9.678;2023-03-23T14:13:15;12.43;;;2.75;;
65373;SDS011;52070;53.760;9.678;2023-03-23T14:15:53;12.32;;;2.78;;
65373;SDS011;52070;53.760;9.678;2023-03-23T14:18:23;19.95;;;3.10;;
65373;SDS011;52070;53.760;9.678;2023-03-23T14:23:23;13.75;;;2.88;;
65373;SDS011;52070;53.760;9.678;2023-03-23T14:25:56;11.48;;;2.67;;
65373;SDS011;52070;53.760;9.678;2023-03-23T14:28:31;12.45;;;2.17;;
65373;SDS011;52070;53.760;9.678;2023-03-23T14:30:59;9.20;;;2.50;;
65373;SDS011;52070;53.760;9.678;2023-03-23T14:33:26;8.25;;;1.90;;
65373;SDS011;52070;53.760;9.678;2023-03-23T14:35:53;8.63;;;1.92;;
65373;SDS011;52070;53.760;9.678;2023-03-23T14:38:26;10.27;;;2.00;;
65373;SDS011;52070;53.760;9.678;2023-03-23T14:41:00;14.43;;;1.98;;
65373;SDS011;52070;53.760;9.678;2023-03-23T14:43:30;13.23;;;2.50;;
65373;SDS011;52070;53.760;9.678;2023-03-23T14:46:00;6.17;;;1.80;;
65373;SDS011;52070;53.760;9.678;2023-03-23T14:48:32;9.32;;;1.77;;
65373;SDS011;52070;53.760;9.678;2023-03-23T14:50:59;9.75;;;2.05;;
65373;SDS011;52070;53.760;9.678;2023-03-23T14:53:32;16.13;;;2.63;;
65373;SDS011;52070;53.760;9.678;2023-03-23T14:56:03;10.50;;;1.80;;
65373;SDS011;52070;53.760;9.678;2023-03-23T14:58:35;15.27;;;2.58;;
65373;SDS011;52070;53.760;9.678;2023-03-23T15:01:03;14.60;;;2.15;;
65373;SDS011;52070;53.760;9.678;2023-03-23T15:03:33;9.80;;;2.47;;
65373;SDS011;52070;53.760;9.678;2023-03-23T15:06:04;9.32;;;1.90;;
65373;SDS011;52070;53.760;9.678;2023-03-23T15:08:38;10.95;;;2.35;;
65373;SDS011;52070;53.760;9.678;2023-03-23T15:11:07;11.20;;;1.90;;
65373;SDS011;52070;53.760;9.678;2023-03-23T15:13:46;13.15;;;2.58;;
65373;SDS011;52070;53.760;9.678;2023-03-23T15:16:16;8.68;;;1.88;;
65373;SDS011;52070;53.760;9.678;2023-03-23T15:18:47;11.35;;;2.30;;